TimeCDT,TemperatureF,Dew PointF,Humidity,Sea Level PressureIn,VisibilityMPH,Wind Direction,Wind SpeedMPH,Gust SpeedMPH,PrecipitationIn,Events,Conditions,WindDirDegrees,DateUTC
12:15 AM,69.8,66.2,88,29.94,10.0,WSW,6.9,-,N/A,,Mostly Cloudy,240,2013-06-17 05:15:00
12:35 AM,69.8,66.2,88,29.95,10.0,WSW,8.1,-,N/A,,Mostly Cloudy,240,2013-06-17 05:35:00
12:55 AM,69.8,66.2,88,29.94,9.0,SW,5.8,-,N/A,,Partly Cloudy,230,2013-06-17 05:55:00
1:15 AM,69.8,66.2,88,29.94,8.0,SW,6.9,-,N/A,,Clear,220,2013-06-17 06:15:00
1:35 AM,69.8,66.2,88,29.93,7.0,SSW,8.1,-,N/A,,Clear,210,2013-06-17 06:35:00
1:55 AM,69.8,66.2,88,29.94,6.0,SW,9.2,-,N/A,,Clear,230,2013-06-17 06:55:00
2:15 AM,69.8,66.2,88,29.94,5.0,SW,8.1,-,N/A,,Partly Cloudy,230,2013-06-17 07:15:00
2:35 AM,69.8,66.2,88,29.94,5.0,WSW,8.1,-,N/A,,Mostly Cloudy,240,2013-06-17 07:35:00
2:55 AM,69.8,66.2,88,29.92,4.0,SW,8.1,-,N/A,,Mostly Cloudy,230,2013-06-17 07:55:00
3:15 AM,68.0,66.2,94,29.93,3.0,SW,8.1,-,N/A,,Scattered Clouds,230,2013-06-17 08:15:00
3:35 AM,68.0,66.2,94,29.93,3.0,WSW,6.9,-,N/A,,Partly Cloudy,240,2013-06-17 08:35:00
3:55 AM,68.0,64.4,88,29.94,3.0,SW,8.1,-,N/A,,Clear,230,2013-06-17 08:55:00
4:15 AM,68.0,66.2,94,29.94,3.0,SW,8.1,-,N/A,,Scattered Clouds,230,2013-06-17 09:15:00
4:35 AM,68.0,66.2,94,29.95,3.0,WSW,6.9,-,N/A,,Mostly Cloudy,240,2013-06-17 09:35:00
4:55 AM,69.8,66.2,88,29.95,3.0,West,8.1,-,N/A,,Overcast,260,2013-06-17 09:55:00
5:15 AM,69.8,66.2,88,29.95,1.8,West,11.5,-,N/A,,Overcast,270,2013-06-17 10:15:00
5:35 AM,69.8,66.2,88,29.94,0.8,West,8.1,-,N/A,,Overcast,260,2013-06-17 10:35:00
5:55 AM,69.8,66.2,88,29.94,0.5,West,6.9,-,N/A,,Overcast,270,2013-06-17 10:55:00
6:15 AM,69.8,66.2,88,29.94,0.5,West,4.6,-,N/A,,Overcast,260,2013-06-17 11:15:00
6:35 AM,69.8,66.2,88,29.94,0.5,WSW,5.8,-,N/A,,Overcast,240,2013-06-17 11:35:00
6:55 AM,69.8,66.2,88,29.95,1.5,WSW,5.8,-,N/A,,Overcast,240,2013-06-17 11:55:00
7:15 AM,69.8,66.2,88,29.95,2.0,WSW,5.8,-,N/A,,Overcast,240,2013-06-17 12:15:00
7:35 AM,69.8,68.0,94,29.95,2.0,SSW,6.9,-,N/A,,Overcast,210,2013-06-17 12:35:00
7:55 AM,71.6,68.0,88,29.95,3.0,Calm,Calm,-,N/A,,Overcast,0,2013-06-17 12:55:00
8:15 AM,73.4,68.0,83,29.96,4.0,WSW,3.5,-,N/A,,Scattered Clouds,240,2013-06-17 13:15:00
8:35 AM,75.2,69.8,83,29.96,5.0,West,4.6,-,N/A,,Partly Cloudy,270,2013-06-17 13:35:00
8:55 AM,77.0,69.8,78,29.95,9.0,WSW,4.6,-,N/A,,Clear,240,2013-06-17 13:55:00
9:15 AM,78.8,69.8,74,29.95,10.0,WNW,4.6,-,N/A,,Clear,290,2013-06-17 14:15:00
9:35 AM,78.8,69.8,74,29.95,10.0,WNW,4.6,-,N/A,,Clear,300,2013-06-17 14:35:00
9:55 AM,78.8,69.8,74,29.95,10.0,West,5.8,-,N/A,,Clear,270,2013-06-17 14:55:00
10:15 AM,80.6,69.8,70,29.95,10.0,West,9.2,-,N/A,,Clear,280,2013-06-17 15:15:00
10:35 AM,80.6,69.8,70,29.95,10.0,WNW,6.9,-,N/A,,Clear,290,2013-06-17 15:35:00
10:55 AM,80.6,68.0,65,29.95,10.0,West,6.9,-,N/A,,Clear,260,2013-06-17 15:55:00
11:15 AM,82.4,68.0,62,29.95,10.0,West,8.1,-,N/A,,Clear,270,2013-06-17 16:15:00
11:35 AM,82.4,64.4,54,29.94,10.0,West,8.1,-,N/A,,Clear,280,2013-06-17 16:35:00
11:55 AM,82.4,64.4,54,29.94,10.0,West,8.1,-,N/A,,Clear,280,2013-06-17 16:55:00
12:15 PM,84.2,64.4,51,29.94,10.0,WNW,6.9,-,N/A,,Clear,290,2013-06-17 17:15:00
12:35 PM,84.2,62.6,48,29.94,10.0,WNW,9.2,-,N/A,,Clear,290,2013-06-17 17:35:00
12:55 PM,84.2,62.6,48,29.93,10.0,West,6.9,-,N/A,,Clear,260,2013-06-17 17:55:00
1:15 PM,84.2,62.6,48,29.93,10.0,West,6.9,-,N/A,,Clear,270,2013-06-17 18:15:00
1:35 PM,84.2,62.6,48,29.93,10.0,NW,4.6,-,N/A,,Clear,310,2013-06-17 18:35:00
1:55 PM,84.2,60.8,45,29.93,10.0,NW,6.9,-,N/A,,Clear,320,2013-06-17 18:55:00
2:15 PM,86.0,57.2,37,29.93,10.0,WNW,6.9,-,N/A,,Partly Cloudy,290,2013-06-17 19:15:00
2:35 PM,86.0,59.0,40,29.92,10.0,NNW,6.9,-,N/A,,Clear,330,2013-06-17 19:35:00
2:55 PM,87.8,59.0,38,29.91,10.0,WNW,6.9,-,N/A,,Clear,300,2013-06-17 19:55:00
3:15 PM,87.8,55.4,33,29.91,10.0,Calm,Calm,-,N/A,,Clear,0,2013-06-17 20:15:00
3:35 PM,86.0,60.8,43,29.90,10.0,West,4.6,-,N/A,,Clear,270,2013-06-17 20:35:00
3:55 PM,86.0,57.2,37,29.89,10.0,Calm,Calm,-,N/A,,Clear,0,2013-06-17 20:55:00
4:15 PM,87.8,59.0,38,29.89,10.0,Calm,Calm,-,N/A,,Clear,0,2013-06-17 21:15:00
4:35 PM,86.0,60.8,43,29.89,10.0,WNW,4.6,-,N/A,,Clear,290,2013-06-17 21:35:00
4:55 PM,86.0,59.0,40,29.88,10.0,West,4.6,-,N/A,,Clear,270,2013-06-17 21:55:00
5:15 PM,86.0,57.2,37,29.88,10.0,Calm,Calm,-,N/A,,Clear,0,2013-06-17 22:15:00
5:35 PM,84.2,57.2,40,29.88,10.0,NW,3.5,-,N/A,,Clear,310,2013-06-17 22:35:00
5:55 PM,84.2,60.8,45,29.88,10.0,NNW,5.8,-,N/A,,Clear,330,2013-06-17 22:55:00
6:15 PM,82.4,60.8,48,29.88,10.0,NNW,5.8,-,N/A,,Clear,340,2013-06-17 23:15:00
6:35 PM,82.4,62.6,51,29.89,10.0,Calm,Calm,-,N/A,,Clear,0,2013-06-17 23:35:00
6:55 PM,82.4,62.6,51,29.89,10.0,WNW,3.5,-,N/A,,Clear,290,2013-06-17 23:55:00
7:15 PM,80.6,62.6,54,29.89,10.0,NW,3.5,-,N/A,,Clear,310,2013-06-18 00:15:00
7:35 PM,78.8,68.0,69,29.89,10.0,Calm,Calm,-,N/A,,Clear,0,2013-06-18 00:35:00
7:55 PM,77.0,66.2,69,29.90,10.0,Calm,Calm,-,N/A,,Clear,0,2013-06-18 00:55:00
8:15 PM,78.8,64.4,61,29.89,10.0,SSW,3.5,-,N/A,,Clear,210,2013-06-18 01:15:00
8:35 PM,73.4,69.8,88,29.89,10.0,South,4.6,-,N/A,,Clear,180,2013-06-18 01:35:00
8:55 PM,73.4,68.0,83,29.89,10.0,South,5.8,-,N/A,,Clear,180,2013-06-18 01:55:00
9:15 PM,71.6,68.0,88,29.88,10.0,South,4.6,-,N/A,,Clear,180,2013-06-18 02:15:00
9:35 PM,73.4,68.0,83,29.89,10.0,Calm,Calm,-,N/A,,Clear,0,2013-06-18 02:35:00
9:55 PM,73.4,66.2,78,29.89,10.0,Calm,Calm,-,N/A,,Clear,0,2013-06-18 02:55:00
10:15 PM,73.4,66.2,78,29.89,10.0,Calm,Calm,-,N/A,,Clear,0,2013-06-18 03:15:00
10:35 PM,71.6,66.2,83,29.89,10.0,Calm,Calm,-,N/A,,Clear,0,2013-06-18 03:35:00
10:55 PM,71.6,66.2,83,29.89,10.0,Calm,Calm,-,N/A,,Clear,0,2013-06-18 03:55:00
11:15 PM,69.8,66.2,88,29.88,10.0,Calm,Calm,-,N/A,,Clear,0,2013-06-18 04:15:00
11:35 PM,69.8,66.2,88,29.88,10.0,SSE,3.5,-,N/A,,Clear,160,2013-06-18 04:35:00
11:55 PM,69.8,66.2,88,29.87,9.0,Calm,Calm,-,N/A,,Clear,0,2013-06-18 04:55:00